sensor_id;sensor_type;location;lat;lon;timestamp;P1;durP1;ratioP1;P2;durP2;ratioP2
2956;SDS011;1488;51.548;7.222;2023-04-06T00:00:22;1.77;;;1.60;;
2956;SDS011;1488;51.548;7.222;2023-04-06T00:02:50;2.00;;;1.70;;
2956;SDS011;1488;51.548;7.222;2023-04-06T00:05:17;2.70;;;1.80;;
2956;SDS011;1488;51.548;7.222;2023-04-06T00:07:45;2.27;;;2.07;;
2956;SDS011;1488;51.548;7.222;2023-04-06T00:10:12;1.70;;;1.60;;
2956;SDS011;1488;51.548;7.222;2023-04-06T00:12:39;2.27;;;1.50;;
2956;SDS011;1488;51.548;7.222;2023-04-06T00:15:06;1.90;;;1.60;;
2956;SDS011;1488;51.548;7.222;2023-04-06T00:17:33;1.87;;;1.77;;
2956;SDS011;1488;51.548;7.222;2023-04-06T00:20:02;2.00;;;1.90;;
2956;SDS011;1488;51.548;7.222;2023-04-06T00:22:29;2.27;;;1.93;;
2956;SDS011;1488;51.548;7.222;2023-04-06T00:24:56;1.93;;;1.77;;
2956;SDS011;1488;51.548;7.222;2023-04-06T00:27:23;2.67;;;1.70;;
2956;SDS011;1488;51.548;7.222;2023-04-06T00:29:50;2.00;;;1.90;;
2956;SDS011;1488;51.548;7.222;2023-04-06T00:32:16;2.17;;;1.97;;
2956;SDS011;1488;51.548;7.222;2023-04-06T00:34:43;1.90;;;1.80;;
2956;SDS011;1488;51.548;7.222;2023-04-06T00:37:12;2.07;;;1.87;;
2956;SDS011;1488;51.548;7.222;2023-04-06T00:39:38;2.13;;;1.93;;
2956;SDS011;1488;51.548;7.222;2023-04-06T00:42:07;2.23;;;2.07;;
2956;SDS011;1488;51.548;7.222;2023-04-06T00:44:37;2.13;;;1.93;;
2956;SDS011;1488;51.548;7.222;2023-04-06T00:47:04;1.63;;;1.53;;
2956;SDS011;1488;51.548;7.222;2023-04-06T00:49:31;2.00;;;1.80;;
2956;SDS011;1488;51.548;7.222;2023-04-06T00:51:59;2.57;;;2.37;;
2956;SDS011;1488;51.548;7.222;2023-04-06T00:54:28;1.57;;;1.47;;
2956;SDS011;1488;51.548;7.222;2023-04-06T00:56:55;2.00;;;1.80;;
2956;SDS011;1488;51.548;7.222;2023-04-06T00:59:22;5.83;;;1.90;;
2956;SDS011;1488;51.548;7.222;2023-04-06T01:01:50;1.87;;;1.77;;
2956;SDS011;1488;51.548;7.222;2023-04-06T01:04:17;2.40;;;1.90;;
2956;SDS011;1488;51.548;7.222;2023-04-06T01:06:44;2.57;;;1.87;;
2956;SDS011;1488;51.548;7.222;2023-04-06T01:09:11;2.03;;;1.83;;
2956;SDS011;1488;51.548;7.222;2023-04-06T01:11:39;2.17;;;2.03;;
2956;SDS011;1488;51.548;7.222;2023-04-06T01:14:06;1.93;;;1.80;;
2956;SDS011;1488;51.548;7.222;2023-04-06T01:16:33;2.77;;;2.27;;
2956;SDS011;1488;51.548;7.222;2023-04-06T01:19:00;3.43;;;2.37;;
2956;SDS011;1488;51.548;7.222;2023-04-06T01:21:27;1.90;;;1.80;;
2956;SDS011;1488;51.548;7.222;2023-04-06T01:23:56;2.27;;;2.03;;
2956;SDS011;1488;51.548;7.222;2023-04-06T01:26:23;2.13;;;1.70;;
2956;SDS011;1488;51.548;7.222;2023-04-06T01:28:50;2.13;;;1.93;;
2956;SDS011;1488;51.548;7.222;2023-04-06T01:31:17;2.40;;;2.20;;
2956;SDS011;1488;51.548;7.222;2023-04-06T01:33:44;2.40;;;2.20;;
2956;SDS011;1488;51.548;7.222;2023-04-06T01:36:11;2.50;;;1.90;;
2956;SDS011;1488;51.548;7.222;2023-04-06T01:38:38;1.80;;;1.67;;
2956;SDS011;1488;51.548;7.222;2023-04-06T01:41:07;2.17;;;1.97;;
2956;SDS011;1488;51.548;7.222;2023-04-06T01:43:34;2.17;;;2.00;;
2956;SDS011;1488;51.548;7.222;2023-04-06T01:46:01;2.57;;;2.07;;
2956;SDS011;1488;51.548;7.222;2023-04-06T01:48:28;2.23;;;1.90;;
2956;SDS011;1488;51.548;7.222;2023-04-06T01:50:55;2.27;;;1.47;;
2956;SDS011;1488;51.548;7.222;2023-04-06T01:53:22;1.93;;;1.73;;
2956;SDS011;1488;51.548;7.222;2023-04-06T01:55:49;1.90;;;1.80;;
2956;SDS011;1488;51.548;7.222;2023-04-06T01:58:17;2.20;;;1.90;;
2956;SDS011;1488;51.548;7.222;2023-04-06T02:00:44;1.70;;;1.50;;
2956;SDS011;1488;51.548;7.222;2023-04-06T02:03:11;1.93;;;1.70;;
2956;SDS011;1488;51.548;7.222;2023-04-06T02:05:39;2.10;;;1.90;;
2956;SDS011;1488;51.548;7.222;2023-04-06T02:08:06;2.50;;;2.30;;
2956;SDS011;1488;51.548;7.222;2023-04-06T02:10:33;2.27;;;2.07;;
2956;SDS011;1488;51.548;7.222;2023-04-06T02:13:01;2.23;;;2.03;;
2956;SDS011;1488;51.548;7.222;2023-04-06T02:15:29;2.20;;;2.00;;
2956;SDS011;1488;51.548;7.222;2023-04-06T02:17:56;2.20;;;1.87;;
2956;SDS011;1488;51.548;7.222;2023-04-06T02:20:23;2.60;;;2.30;;
2956;SDS011;1488;51.548;7.222;2023-04-06T02:22:50;2.13;;;1.93;;
2956;SDS011;1488;51.548;7.222;2023-04-06T02:25:17;2.50;;;2.30;;
2956;SDS011;1488;51.548;7.222;2023-04-06T02:27:44;2.13;;;2.00;;
2956;SDS011;1488;51.548;7.222;2023-04-06T02:30:11;2.60;;;2.40;;
2956;SDS011;1488;51.548;7.222;2023-04-06T02:32:40;2.40;;;2.20;;
2956;SDS011;1488;51.548;7.222;2023-04-06T02:35:07;2.40;;;2.20;;
2956;SDS011;1488;51.548;7.222;2023-04-06T02:37:34;2.40;;;2.20;;
2956;SDS011;1488;51.548;7.222;2023-04-06T02:40:01;2.20;;;2.00;;
2956;SDS011;1488;51.548;7.222;2023-04-06T02:42:28;2.30;;;2.10;;
2956;SDS011;1488;51.548;7.222;2023-04-06T02:44:55;2.17;;;2.07;;
2956;SDS011;1488;51.548;7.222;2023-04-06T02:47:22;2.80;;;2.30;;
2956;SDS011;1488;51.548;7.222;2023-04-06T02:49:50;2.33;;;2.13;;
2956;SDS011;1488;51.548;7.222;2023-04-06T02:52:17;3.57;;;2.47;;
2956;SDS011;1488;51.548;7.222;2023-04-06T02:54:44;2.13;;;1.93;;
2956;SDS011;1488;51.548;7.222;2023-04-06T02:57:11;2.27;;;2.07;;
2956;SDS011;1488;51.548;7.222;2023-04-06T02:59:37;2.40;;;2.20;;
2956;SDS011;1488;51.548;7.222;2023-04-06T03:02:04;2.47;;;2.27;;
2956;SDS011;1488;51.548;7.222;2023-04-06T03:04:31;2.53;;;2.33;;
2956;SDS011;1488;51.548;7.222;2023-04-06T03:06:59;2.83;;;2.40;;
2956;SDS011;1488;51.548;7.222;2023-04-06T03:09:27;2.33;;;2.13;;
2956;SDS011;1488;51.548;7.222;2023-04-06T03:11:54;2.20;;;2.10;;
2956;SDS011;1488;51.548;7.222;2023-04-06T03:14:21;2.43;;;2.23;;
2956;SDS011;1488;51.548;7.222;2023-04-06T03:16:48;2.30;;;2.10;;
2956;SDS011;1488;51.548;7.222;2023-04-06T03:19:15;2.93;;;2.73;;
2956;SDS011;1488;51.548;7.222;2023-04-06T03:21:42;2.80;;;2.60;;
2956;SDS011;1488;51.548;7.222;2023-04-06T03:24:10;2.27;;;2.07;;
2956;SDS011;1488;51.548;7.222;2023-04-06T03:26:37;2.77;;;2.27;;
2956;SDS011;1488;51.548;7.222;2023-04-06T03:29:04;3.00;;;2.20;;
2956;SDS011;1488;51.548;7.222;2023-04-06T03:31:31;2.97;;;2.67;;
2956;SDS011;1488;51.548;7.222;2023-04-06T03:33:58;2.90;;;2.70;;
2956;SDS011;1488;51.548;7.222;2023-04-06T03:36:25;2.40;;;2.20;;
2956;SDS011;1488;51.548;7.222;2023-04-06T03:38:52;2.90;;;2.60;;
2956;SDS011;1488;51.548;7.222;2023-04-06T03:41:21;2.30;;;2.10;;
2956;SDS011;1488;51.548;7.222;2023-04-06T03:43:47;2.50;;;2.30;;
2956;SDS011;1488;51.548;7.222;2023-04-06T03:46:14;2.53;;;2.33;;
2956;SDS011;1488;51.548;7.222;2023-04-06T03:48:41;2.43;;;2.20;;
2956;SDS011;1488;51.548;7.222;2023-04-06T03:51:08;2.50;;;2.30;;
2956;SDS011;1488;51.548;7.222;2023-04-06T03:53:35;3.13;;;2.60;;
2956;SDS011;1488;51.548;7.222;2023-04-06T03:56:03;2.10;;;2.00;;
2956;SDS011;1488;51.548;7.222;2023-04-06T03:58:31;2.33;;;2.13;;
2956;SDS011;1488;51.548;7.222;2023-04-06T04:00:58;2.60;;;2.40;;
2956;SDS011;1488;51.548;7.222;2023-04-06T04:03:25;2.70;;;2.50;;
2956;SDS011;1488;51.548;7.222;2023-04-06T04:05:53;2.63;;;2.43;;
2956;SDS011;1488;51.548;7.222;2023-04-06T04:08:20;2.30;;;2.20;;
2956;SDS011;1488;51.548;7.222;2023-04-06T04:10:47;2.63;;;2.43;;
2956;SDS011;1488;51.548;7.222;2023-04-06T04:13:14;2.50;;;2.30;;
2956;SDS011;1488;51.548;7.222;2023-04-06T04:15:42;2.53;;;2.33;;
2956;SDS011;1488;51.548;7.222;2023-04-06T04:18:09;2.80;;;2.60;;
2956;SDS011;1488;51.548;7.222;2023-04-06T04:20:36;3.63;;;2.47;;
2956;SDS011;1488;51.548;7.222;2023-04-06T04:23:03;2.53;;;2.33;;
2956;SDS011;1488;51.548;7.222;2023-04-06T04:25:30;3.00;;;2.63;;
2956;SDS011;1488;51.548;7.222;2023-04-06T04:27:56;2.50;;;2.30;;
2956;SDS011;1488;51.548;7.222;2023-04-06T04:30:23;2.50;;;2.30;;
2956;SDS011;1488;51.548;7.222;2023-04-06T04:32:52;2.40;;;2.20;;
2956;SDS011;1488;51.548;7.222;2023-04-06T04:35:19;3.23;;;2.43;;
2956;SDS011;1488;51.548;7.222;2023-04-06T04:37:45;3.03;;;2.73;;
2956;SDS011;1488;51.548;7.222;2023-04-06T04:40:12;2.50;;;2.30;;
2956;SDS011;1488;51.548;7.222;2023-04-06T04:42:40;2.80;;;2.53;;
2956;SDS011;1488;51.548;7.222;2023-04-06T04:45:07;3.40;;;2.57;;
2956;SDS011;1488;51.548;7.222;2023-04-06T04:47:34;2.40;;;2.20;;
2956;SDS011;1488;51.548;7.222;2023-04-06T04:50:03;2.70;;;2.50;;
2956;SDS011;1488;51.548;7.222;2023-04-06T04:52:30;2.83;;;2.53;;
2956;SDS011;1488;51.548;7.222;2023-04-06T04:54:57;3.00;;;2.50;;
2956;SDS011;1488;51.548;7.222;2023-04-06T04:57:24;2.63;;;2.43;;
2956;SDS011;1488;51.548;7.222;2023-04-06T04:59:51;2.20;;;2.00;;
2956;SDS011;1488;51.548;7.222;2023-04-06T05:02:17;4.20;;;2.30;;
2956;SDS011;1488;51.548;7.222;2023-04-06T05:04:44;2.73;;;2.53;;
2956;SDS011;1488;51.548;7.222;2023-04-06T05:07:13;2.40;;;2.20;;
2956;SDS011;1488;51.548;7.222;2023-04-06T05:09:40;2.40;;;2.20;;
2956;SDS011;1488;51.548;7.222;2023-04-06T05:12:07;2.83;;;2.53;;
2956;SDS011;1488;51.548;7.222;2023-04-06T05:14:35;3.00;;;2.80;;
2956;SDS011;1488;51.548;7.222;2023-04-06T05:17:02;2.50;;;2.30;;
2956;SDS011;1488;51.548;7.222;2023-04-06T05:19:29;2.60;;;2.40;;
2956;SDS011;1488;51.548;7.222;2023-04-06T05:21:56;2.90;;;2.70;;
2956;SDS011;1488;51.548;7.222;2023-04-06T05:24:24;2.50;;;2.30;;
2956;SDS011;1488;51.548;7.222;2023-04-06T05:26:51;2.57;;;2.37;;
2956;SDS011;1488;51.548;7.222;2023-04-06T05:29:18;3.00;;;2.80;;
2956;SDS011;1488;51.548;7.222;2023-04-06T05:31:46;3.80;;;3.03;;
2956;SDS011;1488;51.548;7.222;2023-04-06T05:34:13;2.27;;;2.07;;
2956;SDS011;1488;51.548;7.222;2023-04-06T05:36:40;2.70;;;2.50;;
2956;SDS011;1488;51.548;7.222;2023-04-06T05:39:07;2.17;;;2.07;;
2956;SDS011;1488;51.548;7.222;2023-04-06T05:41:35;2.80;;;2.60;;
2956;SDS011;1488;51.548;7.222;2023-04-06T05:44:02;2.63;;;2.43;;
2956;SDS011;1488;51.548;7.222;2023-04-06T05:46:29;2.70;;;2.50;;
2956;SDS011;1488;51.548;7.222;2023-04-06T05:48:55;2.90;;;2.70;;
2956;SDS011;1488;51.548;7.222;2023-04-06T05:51:22;3.40;;;3.10;;
2956;SDS011;1488;51.548;7.222;2023-04-06T05:53:50;2.40;;;2.20;;
2956;SDS011;1488;51.548;7.222;2023-04-06T05:56:16;2.63;;;2.43;;
2956;SDS011;1488;51.548;7.222;2023-04-06T05:58:45;3.20;;;2.87;;
2956;SDS011;1488;51.548;7.222;2023-04-06T06:01:12;2.80;;;2.60;;
2956;SDS011;1488;51.548;7.222;2023-04-06T06:03:39;2.60;;;2.40;;
2956;SDS011;1488;51.548;7.222;2023-04-06T06:06:06;2.40;;;2.20;;
2956;SDS011;1488;51.548;7.222;2023-04-06T06:08:33;2.47;;;2.27;;
2956;SDS011;1488;51.548;7.222;2023-04-06T06:11:00;2.47;;;2.27;;
2956;SDS011;1488;51.548;7.222;2023-04-06T06:13:28;3.47;;;2.90;;
2956;SDS011;1488;51.548;7.222;2023-04-06T06:15:56;2.70;;;2.50;;
2956;SDS011;1488;51.548;7.222;2023-04-06T06:18:23;2.87;;;2.67;;
2956;SDS011;1488;51.548;7.222;2023-04-06T06:20:50;2.50;;;2.30;;
2956;SDS011;1488;51.548;7.222;2023-04-06T06:23:17;3.33;;;2.70;;
2956;SDS011;1488;51.548;7.222;2023-04-06T06:25:44;2.27;;;2.07;;
2956;SDS011;1488;51.548;7.222;2023-04-06T06:28:11;3.00;;;2.70;;
2956;SDS011;1488;51.548;7.222;2023-04-06T06:30:38;3.03;;;2.50;;
2956;SDS011;1488;51.548;7.222;2023-04-06T06:33:06;2.63;;;2.43;;
2956;SDS011;1488;51.548;7.222;2023-04-06T06:35:33;4.00;;;2.83;;
2956;SDS011;1488;51.548;7.222;2023-04-06T06:38:00;3.27;;;2.97;;
2956;SDS011;1488;51.548;7.222;2023-04-06T06:40:27;2.83;;;2.63;;
2956;SDS011;1488;51.548;7.222;2023-04-06T06:42:53;4.43;;;2.53;;
2956;SDS011;1488;51.548;7.222;2023-04-06T06:45:20;2.30;;;2.10;;
2956;SDS011;1488;51.548;7.222;2023-04-06T06:47:47;4.13;;;2.30;;
2956;SDS011;1488;51.548;7.222;2023-04-06T06:50:16;3.03;;;2.83;;
2956;SDS011;1488;51.548;7.222;2023-04-06T06:52:43;2.37;;;2.17;;
2956;SDS011;1488;51.548;7.222;2023-04-06T06:55:10;4.37;;;2.63;;
2956;SDS011;1488;51.548;7.222;2023-04-06T06:57:37;3.23;;;2.67;;
2956;SDS011;1488;51.548;7.222;2023-04-06T07:00:05;3.03;;;2.80;;
2956;SDS011;1488;51.548;7.222;2023-04-06T07:02:34;2.83;;;2.63;;
2956;SDS011;1488;51.548;7.222;2023-04-06T07:05:01;2.57;;;2.33;;
2956;SDS011;1488;51.548;7.222;2023-04-06T07:07:31;2.37;;;2.17;;
2956;SDS011;1488;51.548;7.222;2023-04-06T07:09:59;4.80;;;2.03;;
2956;SDS011;1488;51.548;7.222;2023-04-06T07:12:26;2.40;;;2.20;;
2956;SDS011;1488;51.548;7.222;2023-04-06T07:14:53;3.70;;;2.23;;
2956;SDS011;1488;51.548;7.222;2023-04-06T07:17:21;3.67;;;2.20;;
2956;SDS011;1488;51.548;7.222;2023-04-06T07:19:48;2.53;;;2.33;;
2956;SDS011;1488;51.548;7.222;2023-04-06T07:22:15;2.97;;;2.00;;
2956;SDS011;1488;51.548;7.222;2023-04-06T07:24:44;3.93;;;2.30;;
2956;SDS011;1488;51.548;7.222;2023-04-06T07:27:11;2.93;;;2.23;;
2956;SDS011;1488;51.548;7.222;2023-04-06T07:29:38;3.00;;;2.17;;
2956;SDS011;1488;51.548;7.222;2023-04-06T07:32:05;3.10;;;2.10;;
2956;SDS011;1488;51.548;7.222;2023-04-06T07:34:32;2.60;;;2.37;;
2956;SDS011;1488;51.548;7.222;2023-04-06T07:37:00;5.13;;;3.90;;
2956;SDS011;1488;51.548;7.222;2023-04-06T07:39:28;4.40;;;3.07;;
2956;SDS011;1488;51.548;7.222;2023-04-06T07:41:56;3.50;;;2.87;;
2956;SDS011;1488;51.548;7.222;2023-04-06T07:44:23;4.07;;;2.70;;
2956;SDS011;1488;51.548;7.222;2023-04-06T07:46:50;5.13;;;2.70;;
2956;SDS011;1488;51.548;7.222;2023-04-06T07:49:17;4.13;;;2.50;;
2956;SDS011;1488;51.548;7.222;2023-04-06T07:51:45;5.20;;;2.80;;
2956;SDS011;1488;51.548;7.222;2023-04-06T07:54:12;4.03;;;2.90;;
2956;SDS011;1488;51.548;7.222;2023-04-06T07:56:41;2.97;;;2.70;;
2956;SDS011;1488;51.548;7.222;2023-04-06T07:59:26;3.77;;;2.90;;
2956;SDS011;1488;51.548;7.222;2023-04-06T08:01:53;3.10;;;2.80;;
2956;SDS011;1488;51.548;7.222;2023-04-06T08:04:20;5.97;;;2.30;;
2956;SDS011;1488;51.548;7.222;2023-04-06T08:06:48;5.90;;;2.67;;
2956;SDS011;1488;51.548;7.222;2023-04-06T08:09:15;7.00;;;3.70;;
2956;SDS011;1488;51.548;7.222;2023-04-06T08:11:42;3.17;;;2.87;;
2956;SDS011;1488;51.548;7.222;2023-04-06T08:14:09;3.13;;;2.67;;
2956;SDS011;1488;51.548;7.222;2023-04-06T08:16:38;4.87;;;4.47;;
2956;SDS011;1488;51.548;7.222;2023-04-06T08:19:05;6.73;;;4.40;;
2956;SDS011;1488;51.548;7.222;2023-04-06T08:21:34;5.07;;;3.87;;
2956;SDS011;1488;51.548;7.222;2023-04-06T08:24:01;5.90;;;3.43;;
2956;SDS011;1488;51.548;7.222;2023-04-06T08:26:28;3.50;;;3.20;;
2956;SDS011;1488;51.548;7.222;2023-04-06T08:28:55;5.53;;;2.70;;
2956;SDS011;1488;51.548;7.222;2023-04-06T08:31:22;4.70;;;2.83;;
2956;SDS011;1488;51.548;7.222;2023-04-06T08:33:51;5.37;;;2.77;;
2956;SDS011;1488;51.548;7.222;2023-04-06T08:36:18;2.90;;;2.60;;
2956;SDS011;1488;51.548;7.222;2023-04-06T08:38:47;5.23;;;2.67;;
2956;SDS011;1488;51.548;7.222;2023-04-06T08:41:15;3.00;;;2.60;;
2956;SDS011;1488;51.548;7.222;2023-04-06T08:43:43;2.90;;;2.23;;
2956;SDS011;1488;51.548;7.222;2023-04-06T08:46:13;4.83;;;2.53;;
2956;SDS011;1488;51.548;7.222;2023-04-06T08:48:41;3.60;;;2.40;;
2956;SDS011;1488;51.548;7.222;2023-04-06T08:51:10;2.60;;;2.40;;
2956;SDS011;1488;51.548;7.222;2023-04-06T08:53:38;5.30;;;2.30;;
2956;SDS011;1488;51.548;7.222;2023-04-06T08:56:05;3.50;;;2.27;;
2956;SDS011;1488;51.548;7.222;2023-04-06T08:58:34;4.50;;;2.30;;
2956;SDS011;1488;51.548;7.222;2023-04-06T09:01:05;4.40;;;2.30;;
2956;SDS011;1488;51.548;7.222;2023-04-06T09:03:37;5.47;;;2.50;;
2956;SDS011;1488;51.548;7.222;2023-04-06T09:06:05;2.50;;;2.07;;
2956;SDS011;1488;51.548;7.222;2023-04-06T09:08:35;4.60;;;2.67;;
2956;SDS011;1488;51.548;7.222;2023-04-06T09:11:04;3.73;;;2.00;;
2956;SDS011;1488;51.548;7.222;2023-04-06T09:13:31;2.40;;;2.17;;
2956;SDS011;1488;51.548;7.222;2023-04-06T09:15:58;3.30;;;2.80;;
2956;SDS011;1488;51.548;7.222;2023-04-06T09:18:30;2.63;;;2.20;;
2956;SDS011;1488;51.548;7.222;2023-04-06T09:21:02;4.30;;;2.40;;
2956;SDS011;1488;51.548;7.222;2023-04-06T09:23:30;3.93;;;3.40;;
2956;SDS011;1488;51.548;7.222;2023-04-06T09:26:13;9.97;;;3.10;;
2956;SDS011;1488;51.548;7.222;2023-04-06T09:28:41;2.73;;;2.40;;
2956;SDS011;1488;51.548;7.222;2023-04-06T09:31:10;3.63;;;2.53;;
2956;SDS011;1488;51.548;7.222;2023-04-06T09:33:37;6.40;;;3.43;;
2956;SDS011;1488;51.548;7.222;2023-04-06T09:36:06;5.43;;;2.40;;
2956;SDS011;1488;51.548;7.222;2023-04-06T09:38:36;3.30;;;2.33;;
2956;SDS011;1488;51.548;7.222;2023-04-06T17:46:18;2.90;;;1.93;;
2956;SDS011;1488;51.548;7.222;2023-04-06T17:48:46;1.63;;;1.43;;
2956;SDS011;1488;51.548;7.222;2023-04-06T17:51:13;3.87;;;1.70;;
2956;SDS011;1488;51.548;7.222;2023-04-06T17:53:42;3.30;;;1.67;;
2956;SDS011;1488;51.548;7.222;2023-04-06T17:56:09;1.97;;;1.20;;
2956;SDS011;1488;51.548;7.222;2023-04-06T17:58:36;1.80;;;1.43;;
2956;SDS011;1488;51.548;7.222;2023-04-06T18:01:06;6.13;;;1.67;;
2956;SDS011;1488;51.548;7.222;2023-04-06T18:03:36;5.33;;;1.50;;
2956;SDS011;1488;51.548;7.222;2023-04-06T18:06:10;2.47;;;1.27;;
2956;SDS011;1488;51.548;7.222;2023-04-06T18:08:37;1.80;;;1.30;;
2956;SDS011;1488;51.548;7.222;2023-04-06T18:11:05;1.40;;;1.20;;
2956;SDS011;1488;51.548;7.222;2023-04-06T18:13:31;2.53;;;1.87;;
2956;SDS011;1488;51.548;7.222;2023-04-06T18:15:59;5.43;;;1.70;;
2956;SDS011;1488;51.548;7.222;2023-04-06T18:18:26;6.33;;;1.60;;
2956;SDS011;1488;51.548;7.222;2023-04-06T18:20:54;4.80;;;2.00;;
2956;SDS011;1488;51.548;7.222;2023-04-06T18:23:21;3.97;;;1.80;;
2956;SDS011;1488;51.548;7.222;2023-04-06T18:25:48;3.47;;;1.20;;
2956;SDS011;1488;51.548;7.222;2023-04-06T18:28:15;4.53;;;1.87;;
2956;SDS011;1488;51.548;7.222;2023-04-06T18:30:41;2.40;;;1.33;;
2956;SDS011;1488;51.548;7.222;2023-04-06T18:33:08;4.53;;;1.80;;
2956;SDS011;1488;51.548;7.222;2023-04-06T18:35:36;9.43;;;2.00;;
2956;SDS011;1488;51.548;7.222;2023-04-06T18:38:05;4.60;;;1.60;;
2956;SDS011;1488;51.548;7.222;2023-04-06T18:40:32;3.37;;;1.93;;
2956;SDS011;1488;51.548;7.222;2023-04-06T18:43:00;3.47;;;1.60;;
2956;SDS011;1488;51.548;7.222;2023-04-06T18:45:28;3.70;;;1.60;;
2956;SDS011;1488;51.548;7.222;2023-04-06T18:47:59;2.20;;;1.70;;
2956;SDS011;1488;51.548;7.222;2023-04-06T18:50:26;4.77;;;2.03;;
2956;SDS011;1488;51.548;7.222;2023-04-06T18:52:53;1.80;;;1.27;;
2956;SDS011;1488;51.548;7.222;2023-04-06T18:55:21;2.13;;;1.50;;
2956;SDS011;1488;51.548;7.222;2023-04-06T18:57:48;2.03;;;1.27;;
2956;SDS011;1488;51.548;7.222;2023-04-06T19:00:15;2.33;;;2.00;;
2956;SDS011;1488;51.548;7.222;2023-04-06T19:02:42;4.33;;;1.23;;
2956;SDS011;1488;51.548;7.222;2023-04-06T19:05:09;3.03;;;1.50;;
2956;SDS011;1488;51.548;7.222;2023-04-06T19:07:36;9.50;;;1.87;;
2956;SDS011;1488;51.548;7.222;2023-04-06T19:10:03;3.77;;;2.07;;
2956;SDS011;1488;51.548;7.222;2023-04-06T19:12:33;2.13;;;1.50;;
2956;SDS011;1488;51.548;7.222;2023-04-06T19:15:02;4.17;;;1.43;;
2956;SDS011;1488;51.548;7.222;2023-04-06T19:17:30;1.80;;;1.20;;
2956;SDS011;1488;51.548;7.222;2023-04-06T19:19:57;3.17;;;1.40;;
2956;SDS011;1488;51.548;7.222;2023-04-06T19:22:24;4.53;;;1.30;;
2956;SDS011;1488;51.548;7.222;2023-04-06T19:24:51;5.57;;;1.30;;
2956;SDS011;1488;51.548;7.222;2023-04-06T19:27:18;1.43;;;1.33;;
2956;SDS011;1488;51.548;7.222;2023-04-06T19:29:46;2.40;;;1.40;;
2956;SDS011;1488;51.548;7.222;2023-04-06T19:32:13;1.90;;;1.33;;
2956;SDS011;1488;51.548;7.222;2023-04-06T19:34:40;4.00;;;1.50;;
2956;SDS011;1488;51.548;7.222;2023-04-06T19:37:07;3.83;;;1.30;;
2956;SDS011;1488;51.548;7.222;2023-04-06T19:39:34;1.50;;;1.30;;
2956;SDS011;1488;51.548;7.222;2023-04-06T19:42:02;3.20;;;1.27;;
2956;SDS011;1488;51.548;7.222;2023-04-06T19:44:29;3.67;;;1.30;;
2956;SDS011;1488;51.548;7.222;2023-04-06T19:46:57;2.17;;;1.30;;
2956;SDS011;1488;51.548;7.222;2023-04-06T19:49:24;3.20;;;1.57;;
2956;SDS011;1488;51.548;7.222;2023-04-06T19:51:52;2.50;;;1.30;;
2956;SDS011;1488;51.548;7.222;2023-04-06T19:54:19;2.20;;;1.33;;
2956;SDS011;1488;51.548;7.222;2023-04-06T19:56:46;3.77;;;1.40;;
2956;SDS011;1488;51.548;7.222;2023-04-06T19:59:13;1.67;;;1.23;;
2956;SDS011;1488;51.548;7.222;2023-04-06T20:01:41;1.47;;;1.33;;
2956;SDS011;1488;51.548;7.222;2023-04-06T20:04:10;3.73;;;1.53;;
2956;SDS011;1488;51.548;7.222;2023-04-06T20:06:37;2.30;;;1.17;;
2956;SDS011;1488;51.548;7.222;2023-04-06T20:09:04;6.37;;;1.47;;
2956;SDS011;1488;51.548;7.222;2023-04-06T20:11:31;2.90;;;1.20;;
2956;SDS011;1488;51.548;7.222;2023-04-06T20:13:59;1.27;;;1.10;;
2956;SDS011;1488;51.548;7.222;2023-04-06T20:16:25;1.60;;;1.27;;
2956;SDS011;1488;51.548;7.222;2023-04-06T20:18:52;1.80;;;1.07;;
2956;SDS011;1488;51.548;7.222;2023-04-06T20:21:20;1.93;;;1.30;;
2956;SDS011;1488;51.548;7.222;2023-04-06T20:23:47;2.50;;;1.27;;
2956;SDS011;1488;51.548;7.222;2023-04-06T20:26:14;1.30;;;1.20;;
2956;SDS011;1488;51.548;7.222;2023-04-06T20:28:41;1.77;;;1.20;;
2956;SDS011;1488;51.548;7.222;2023-04-06T20:31:08;2.50;;;1.40;;
2956;SDS011;1488;51.548;7.222;2023-04-06T20:33:36;1.60;;;1.13;;
2956;SDS011;1488;51.548;7.222;2023-04-06T20:36:04;2.50;;;1.20;;
2956;SDS011;1488;51.548;7.222;2023-04-06T20:38:32;1.60;;;1.27;;
2956;SDS011;1488;51.548;7.222;2023-04-06T20:40:59;4.30;;;1.30;;
2956;SDS011;1488;51.548;7.222;2023-04-06T20:43:26;1.30;;;1.20;;
2956;SDS011;1488;51.548;7.222;2023-04-06T20:45:53;1.40;;;1.30;;
2956;SDS011;1488;51.548;7.222;2023-04-06T20:48:21;2.50;;;1.20;;
2956;SDS011;1488;51.548;7.222;2023-04-06T20:50:48;3.13;;;1.30;;
2956;SDS011;1488;51.548;7.222;2023-04-06T20:53:15;2.43;;;1.20;;
2956;SDS011;1488;51.548;7.222;2023-04-06T20:55:44;1.70;;;1.40;;
2956;SDS011;1488;51.548;7.222;2023-04-06T20:58:13;1.43;;;1.10;;
2956;SDS011;1488;51.548;7.222;2023-04-06T21:00:40;1.33;;;1.20;;
2956;SDS011;1488;51.548;7.222;2023-04-06T21:03:07;2.30;;;1.10;;
2956;SDS011;1488;51.548;7.222;2023-04-06T21:05:34;3.73;;;0.90;;
2956;SDS011;1488;51.548;7.222;2023-04-06T21:08:01;1.20;;;1.10;;
2956;SDS011;1488;51.548;7.222;2023-04-06T21:10:28;2.40;;;1.00;;
2956;SDS011;1488;51.548;7.222;2023-04-06T21:12:56;1.60;;;1.40;;
2956;SDS011;1488;51.548;7.222;2023-04-06T21:15:22;2.77;;;1.10;;
2956;SDS011;1488;51.548;7.222;2023-04-06T21:17:49;1.30;;;1.20;;
2956;SDS011;1488;51.548;7.222;2023-04-06T21:20:16;1.60;;;1.20;;
2956;SDS011;1488;51.548;7.222;2023-04-06T21:22:43;1.50;;;1.40;;
2956;SDS011;1488;51.548;7.222;2023-04-06T21:25:10;1.90;;;1.00;;
2956;SDS011;1488;51.548;7.222;2023-04-06T21:27:37;1.20;;;1.10;;
2956;SDS011;1488;51.548;7.222;2023-04-06T21:30:05;1.40;;;0.90;;
2956;SDS011;1488;51.548;7.222;2023-04-06T21:32:33;2.83;;;1.23;;
2956;SDS011;1488;51.548;7.222;2023-04-06T21:35:00;1.70;;;1.27;;
2956;SDS011;1488;51.548;7.222;2023-04-06T21:37:27;1.83;;;1.00;;
2956;SDS011;1488;51.548;7.222;2023-04-06T21:39:54;5.67;;;1.00;;
2956;SDS011;1488;51.548;7.222;2023-04-06T21:42:21;4.37;;;1.13;;
2956;SDS011;1488;51.548;7.222;2023-04-06T21:44:50;1.40;;;1.20;;
2956;SDS011;1488;51.548;7.222;2023-04-06T21:47:25;6.40;;;1.43;;
2956;SDS011;1488;51.548;7.222;2023-04-06T21:49:52;1.10;;;0.80;;
2956;SDS011;1488;51.548;7.222;2023-04-06T21:52:18;1.40;;;1.10;;
2956;SDS011;1488;51.548;7.222;2023-04-06T21:54:46;2.17;;;1.13;;
2956;SDS011;1488;51.548;7.222;2023-04-06T21:57:13;1.30;;;1.00;;
2956;SDS011;1488;51.548;7.222;2023-04-06T21:59:40;1.30;;;1.00;;
2956;SDS011;1488;51.548;7.222;2023-04-06T22:02:07;1.60;;;1.27;;
2956;SDS011;1488;51.548;7.222;2023-04-06T22:04:36;1.63;;;1.10;;
2956;SDS011;1488;51.548;7.222;2023-04-06T22:07:03;1.10;;;1.00;;
2956;SDS011;1488;51.548;7.222;2023-04-06T22:09:31;1.83;;;1.30;;
2956;SDS011;1488;51.548;7.222;2023-04-06T22:11:58;1.60;;;0.90;;
2956;SDS011;1488;51.548;7.222;2023-04-06T22:14:25;1.27;;;1.00;;
2956;SDS011;1488;51.548;7.222;2023-04-06T22:16:54;1.10;;;1.00;;
2956;SDS011;1488;51.548;7.222;2023-04-06T22:19:21;1.30;;;1.20;;
2956;SDS011;1488;51.548;7.222;2023-04-06T22:21:49;1.13;;;1.03;;
2956;SDS011;1488;51.548;7.222;2023-04-06T22:24:16;3.47;;;0.93;;
2956;SDS011;1488;51.548;7.222;2023-04-06T22:26:43;1.37;;;1.07;;
2956;SDS011;1488;51.548;7.222;2023-04-06T22:29:10;1.70;;;1.10;;
2956;SDS011;1488;51.548;7.222;2023-04-06T22:31:37;1.67;;;0.90;;
2956;SDS011;1488;51.548;7.222;2023-04-06T22:34:03;1.00;;;0.80;;
2956;SDS011;1488;51.548;7.222;2023-04-06T22:36:30;1.63;;;0.90;;
2956;SDS011;1488;51.548;7.222;2023-04-06T22:38:58;1.73;;;1.00;;
2956;SDS011;1488;51.548;7.222;2023-04-06T22:41:25;1.33;;;0.93;;
2956;SDS011;1488;51.548;7.222;2023-04-06T22:43:52;1.87;;;1.00;;
2956;SDS011;1488;51.548;7.222;2023-04-06T22:46:19;2.30;;;1.20;;
2956;SDS011;1488;51.548;7.222;2023-04-06T22:48:46;1.20;;;1.00;;
2956;SDS011;1488;51.548;7.222;2023-04-06T22:51:13;2.23;;;0.90;;
2956;SDS011;1488;51.548;7.222;2023-04-06T22:53:40;1.50;;;1.17;;
2956;SDS011;1488;51.548;7.222;2023-04-06T22:56:08;1.10;;;0.90;;
2956;SDS011;1488;51.548;7.222;2023-04-06T22:58:35;1.20;;;1.00;;
2956;SDS011;1488;51.548;7.222;2023-04-06T23:01:01;1.57;;;0.87;;
2956;SDS011;1488;51.548;7.222;2023-04-06T23:03:28;1.30;;;1.10;;
2956;SDS011;1488;51.548;7.222;2023-04-06T23:05:55;1.20;;;0.90;;
2956;SDS011;1488;51.548;7.222;2023-04-06T23:08:22;1.10;;;0.90;;
2956;SDS011;1488;51.548;7.222;2023-04-06T23:10:49;1.97;;;0.80;;
2956;SDS011;1488;51.548;7.222;2023-04-06T23:13:17;1.20;;;1.07;;
2956;SDS011;1488;51.548;7.222;2023-04-06T23:15:44;1.07;;;0.80;;
2956;SDS011;1488;51.548;7.222;2023-04-06T23:18:11;1.80;;;1.30;;
2956;SDS011;1488;51.548;7.222;2023-04-06T23:20:38;1.13;;;1.03;;